WetterOnline ( https://www.wetteronline.ch )

Wetter aktuell Frankfurt am Main

Aktuelles Wetter: Offenbach (119m)

6-stündlich | Neueste Meldungen
Ortszeit Temperatur Wetter
Di, 20.10. 20:00 10.6° C leichter Regen
Di, 20.10. 14:00 13.9° C bedeckt
Di, 20.10. 8:00 2.4° C wolkig
Di, 20.10. 2:00 6.5° C wolkig
Mo, 19.10. 20:00 7.4° C leicht bewölkt
Mo, 19.10. 14:00 12.0° C bedeckt
Mo, 19.10. 8:00 7.0° C bedeckt
Mo, 19.10. 2:00 8.2° C bedeckt
Ortszeit Temperatur Wetter
Mi, 21.10. 0:30 11.7° C Sprühregen
Mi, 21.10. 0:20 11.7° C Sprühregen
Mi, 21.10. 0:10 11.7° C leichter Regen
Mi, 21.10. 0:00 11.7° C leichter Regen
Di, 20.10. 23:50 11.7° C leichter Regen
Di, 20.10. 23:40 11.5° C bewölkt
Di, 20.10. 23:30 11.5° C wolkig
Di, 20.10. 23:00 11.0° C leichter Regen
Ortszeit Relative Feuchte Sichtweite
Di, 20.10. 20:00 96% 6 km
Di, 20.10. 14:00 57% 55 km
Di, 20.10. 8:00 95% 6 km
Di, 20.10. 2:00 77% 30 km
Mo, 19.10. 20:00 88% 20 km
Mo, 19.10. 14:00 67% 21 km
Mo, 19.10. 8:00 91% 8 km
Mo, 19.10. 2:00 83% 17 km
Ortszeit Relative Feuchte Sichtweite
Mi, 21.10. 0:30 86% 40 km
Mi, 21.10. 0:20 86% -
Mi, 21.10. 0:10 86% -
Mi, 21.10. 0:00 86% 30 km
Di, 20.10. 23:50 86% -
Di, 20.10. 23:40 88% -
Di, 20.10. 23:30 87% 35 km
Di, 20.10. 23:00 91% 30 km
Ortszeit Niederschlagsmenge Niederschlagsart
Di, 20.10. 20:00 0.3 l/m2 in 12 Std. Regen
Di, 20.10. 14:00 0.0 l/m2 in 6 Std. -
Di, 20.10. 8:00 0.0 l/m2 in 12 Std. -
Di, 20.10. 2:00 0.0 l/m2 in 6 Std. -
Mo, 19.10. 20:00 0.0 l/m2 in 12 Std. -
Mo, 19.10. 14:00 0.0 l/m2 in 6 Std. -
Mo, 19.10. 8:00 0.0 l/m2 in 12 Std. -
Mo, 19.10. 2:00 0.0 l/m2 in 6 Std. -
Ortszeit Niederschlagsmenge Niederschlagsart
Mi, 21.10. 0:30 0.1 l/m2 in 1 Std. -
Mi, 21.10. 0:20 keine Meldung -
Mi, 21.10. 0:10 keine Meldung -
Mi, 21.10. 0:00 0.1 l/m2 in 1 Std. Regen
Di, 20.10. 23:50 keine Meldung -
Di, 20.10. 23:40 keine Meldung -
Di, 20.10. 23:30 0.1 l/m2 in 1 Std. Schneeregen
Di, 20.10. 23:00 0.1 l/m2 in 1 Std. Regen
Ortszeit Stärke Spitze Richtung
km/h Bft. km/h Grad Sektor
Di, 20.10. 20:00 4 1 14 90° O
Di, 20.10. 14:00 7 2 18 190° S
Di, 20.10. 8:00 4 1 22 150° SO
Di, 20.10. 2:00 13 3 26 140° SO
Mo, 19.10. 20:00 4 1 14 130° SO
Mo, 19.10. 14:00 7 2 14 200° S
Mo, 19.10. 8:00 4 1 7 120° SO
Mo, 19.10. 2:00 6 1 9 180° S
Ortszeit Stärke Spitze Richtung
km/h Bft. km/h Grad Sektor
Mi, 21.10. 0:30 9 2 17 130° SO
Mi, 21.10. 0:20 9 2 - 130° SO
Mi, 21.10. 0:10 11 2 - 130° SO
Mi, 21.10. 0:00 9 2 15 130° SO
Di, 20.10. 23:50 9 2 - 130° SO
Di, 20.10. 23:40 7 2 - 130° SO
Di, 20.10. 23:30 9 2 15 120° SO
Di, 20.10. 23:00 4 1 11 140° SO
Ortszeit Untergrenze Bedeckung Gattung
total tief tief mittel hoch
Di, 20.10. 20:00 1500 m 7/8 7/8 - - -
Di, 20.10. 14:00 5100 m 8/8 8/8 - - -
Di, 20.10. 8:00 9000 m 8/8 0/8 - - -
Di, 20.10. 2:00 10500 m 8/8 0/8 - - -
Mo, 19.10. 20:00 1500 m 2/8 2/8 - - -
Mo, 19.10. 14:00 630 m 8/8 8/8 - - -
Mo, 19.10. 8:00 1800 m 8/8 8/8 - - -
Mo, 19.10. 2:00 1800 m 8/8 8/8 - - -
Ortszeit Bedeckungsgrad in Achtel und Wolkenuntergrenze
Mi, 21.10. 0:30 7(2700m)
Mi, 21.10. 0:20 7(2700m)
Mi, 21.10. 0:10 7(3000m)
Mi, 21.10. 0:00 1(2100m) 8(3000m)
Di, 20.10. 23:50 1(2100m) 8(3000m)
Di, 20.10. 23:40 1(2100m) 7(2700m)
Di, 20.10. 23:30 2(2100m) 8(3600m) 8(4200m)
Di, 20.10. 23:00 1(2400m) 6(3000m) 8(3600m)
Ortszeit Luftdruck NN (hPa) Tendenz (hPa in 3 Std.)
Di, 20.10. 20:00 1015 + 0,5
Di, 20.10. 14:00 1015 - 0,5
Di, 20.10. 8:00 1016 - 1,0
Di, 20.10. 2:00 1018 - 2,1
Mo, 19.10. 20:00 1021 - 0,7
Mo, 19.10. 14:00 1023 - 0,8
Mo, 19.10. 8:00 1024 + 0,1
Mo, 19.10. 2:00 1024 + 0,1
Ortszeit Luftdruck NN (hPa) Tendenz (hPa in 3 Std.)
Mi, 21.10. 0:30 1011 - 1,6
Mi, 21.10. 0:20 1011 keine Meldung
Mi, 21.10. 0:10 1011 keine Meldung
Mi, 21.10. 0:00 1012 - 1,5
Di, 20.10. 23:50 1012 keine Meldung
Di, 20.10. 23:40 1012 keine Meldung
Di, 20.10. 23:30 1012 - 2,0
Di, 20.10. 23:00 1012 - 2,2
Ortszeit Schneehöhe (cm)
Di, 20.10. 20:00 0
Di, 20.10. 14:00 0
Di, 20.10. 8:00 0
Di, 20.10. 2:00 0
Mo, 19.10. 20:00 0
Mo, 19.10. 14:00 0
Mo, 19.10. 8:00 0
Mo, 19.10. 2:00 0
Ortszeit Schneehöhe (cm)
Mi, 21.10. 0:30 0
Mi, 21.10. 0:20 0
Mi, 21.10. 0:10 0
Mi, 21.10. 0:00 0
Di, 20.10. 23:50 0
Di, 20.10. 23:40 0
Di, 20.10. 23:30 0
Di, 20.10. 23:00 0
Link zu dieser Seite / Seite empfehlen

Das Wetter in ...